createdAt,value
2022-12-19T00:00:14.828Z,22.33
2022-12-19T00:02:42.800Z,20.37
2022-12-19T00:05:11.003Z,21.20
2022-12-19T00:07:38.334Z,19.87
2022-12-19T00:10:07.604Z,20.60
2022-12-19T00:12:35.027Z,20.10
2022-12-19T00:15:03.499Z,22.03
2022-12-19T00:17:33.036Z,21.23
2022-12-19T00:20:02.850Z,19.97
2022-12-19T00:22:30.348Z,19.77
2022-12-19T00:24:57.866Z,20.77
2022-12-19T00:27:25.223Z,21.33
2022-12-19T00:29:52.642Z,23.50
2022-12-19T00:32:20.090Z,20.40
2022-12-19T00:34:47.406Z,20.93
2022-12-19T00:37:14.968Z,21.37
2022-12-19T00:39:42.167Z,20.80
2022-12-19T00:42:09.536Z,19.17
2022-12-19T00:44:36.968Z,19.37
2022-12-19T00:47:04.338Z,19.30
2022-12-19T00:49:31.793Z,19.50
2022-12-19T00:52:01.829Z,22.70
2022-12-19T00:54:31.227Z,23.07
2022-12-19T00:57:00.348Z,19.87
2022-12-19T00:59:28.434Z,22.47
2022-12-19T01:01:57.599Z,21.70
2022-12-19T01:04:28.816Z,21.17
2022-12-19T01:07:02.166Z,22.30
2022-12-19T01:09:34.027Z,20.60
2022-12-19T01:12:20.452Z,21.37
2022-12-19T01:14:53.899Z,22.27
2022-12-19T01:17:21.383Z,21.70
2022-12-19T01:19:49.358Z,22.00
2022-12-19T01:22:16.847Z,22.27
2022-12-19T01:24:46.459Z,20.20
2022-12-19T01:27:15.991Z,21.20
2022-12-19T01:29:51.204Z,21.27
2022-12-19T01:32:21.263Z,20.73
2022-12-19T01:34:48.639Z,20.77
2022-12-19T01:37:17.433Z,19.70
2022-12-19T01:39:44.937Z,20.33
2022-12-19T01:42:23.558Z,23.27
2022-12-19T01:45:13.544Z,22.07
2022-12-19T01:47:49.483Z,21.30
2022-12-19T01:50:33.126Z,21.37
2022-12-19T01:53:01.282Z,22.17
2022-12-19T01:55:30.167Z,21.50
2022-12-19T01:57:59.877Z,22.60
2022-12-19T02:00:27.328Z,20.90
2022-12-19T02:03:00.205Z,20.20
2022-12-19T02:05:28.377Z,21.70
2022-12-19T02:07:56.137Z,22.17
2022-12-19T02:10:23.569Z,22.70
2022-12-19T02:12:52.510Z,22.37
2022-12-19T02:15:20.924Z,22.00
2022-12-19T02:17:52.805Z,21.93
2022-12-19T02:20:44.687Z,21.70
2022-12-19T02:23:28.857Z,20.90
2022-12-19T02:26:02.845Z,20.40
2022-12-19T02:28:56.816Z,21.30
2022-12-19T02:31:31.253Z,20.60
2022-12-19T02:34:12.462Z,22.50
2022-12-19T02:36:51.919Z,19.47
2022-12-19T02:39:21.949Z,23.03
2022-12-19T02:41:52.459Z,21.60
2022-12-19T02:44:31.909Z,20.63
2022-12-19T02:47:01.425Z,22.77
2022-12-19T02:49:30.593Z,19.70
2022-12-19T02:51:58.852Z,20.63
2022-12-19T02:54:26.465Z,22.27
2022-12-19T02:57:06.132Z,23.20
2022-12-19T02:59:33.992Z,23.93
2022-12-19T03:02:01.575Z,20.63
2022-12-19T03:04:36.253Z,20.43
2022-12-19T03:07:09.165Z,22.60
2022-12-19T03:09:45.954Z,21.40
2022-12-19T03:12:17.857Z,22.27
2022-12-19T03:14:46.903Z,23.97
2022-12-19T03:17:15.280Z,22.60
2022-12-19T03:19:46.176Z,22.93
2022-12-19T03:22:13.625Z,20.93
2022-12-19T03:24:41.810Z,21.50
2022-12-19T03:27:15.112Z,22.43
2022-12-19T03:29:51.926Z,23.93
2022-12-19T03:32:20.413Z,23.63
2022-12-19T03:34:59.550Z,23.20
2022-12-19T03:37:28.741Z,24.63
2022-12-19T03:39:58.952Z,22.47
2022-12-19T03:42:46.404Z,22.17
2022-12-19T03:45:16.044Z,23.63
2022-12-19T03:47:47.660Z,24.10
2022-12-19T03:50:14.989Z,22.57
2022-12-19T03:53:00.551Z,21.17
2022-12-19T03:55:35.395Z,22.83
2022-12-19T03:58:11.166Z,23.10
2022-12-19T04:00:41.888Z,22.67
2022-12-19T04:03:09.624Z,23.20
2022-12-19T04:05:37.839Z,24.53
2022-12-19T04:08:07.623Z,23.33
2022-12-19T04:10:41.468Z,22.70
2022-12-19T04:13:14.465Z,23.63
2022-12-19T04:15:41.620Z,23.03
2022-12-19T04:18:11.295Z,22.97
2022-12-19T04:20:40.215Z,24.20
2022-12-19T04:23:12.039Z,22.23
2022-12-19T04:25:41.340Z,24.80
2022-12-19T04:28:11.862Z,24.00
2022-12-19T04:30:40.464Z,23.77
2022-12-19T04:33:07.984Z,22.20
2022-12-19T04:35:35.555Z,23.63
2022-12-19T04:38:02.991Z,22.97
2022-12-19T04:40:30.333Z,24.67
2022-12-19T04:42:57.498Z,25.07
2022-12-19T04:45:24.626Z,26.07
2022-12-19T04:47:52.376Z,23.77
2022-12-19T04:50:19.549Z,23.10
2022-12-19T04:52:46.781Z,24.03
2022-12-19T04:55:14.433Z,23.80
2022-12-19T04:57:41.592Z,24.80
2022-12-19T05:00:09.138Z,25.47
2022-12-19T05:02:38.365Z,23.80
2022-12-19T05:05:05.977Z,24.30
2022-12-19T05:07:33.140Z,22.83
2022-12-19T05:10:00.272Z,24.83
2022-12-19T05:12:28.828Z,24.07
2022-12-19T05:14:56.008Z,23.60
2022-12-19T05:17:23.144Z,24.57
2022-12-19T05:19:50.280Z,28.43
2022-12-19T05:22:17.478Z,22.73
2022-12-19T05:24:44.734Z,20.93
2022-12-19T05:27:11.879Z,24.10
2022-12-19T05:29:39.026Z,24.00
2022-12-19T05:32:06.250Z,23.93
2022-12-19T05:34:33.453Z,23.73
2022-12-19T05:37:02.943Z,23.60
2022-12-19T05:39:30.672Z,25.73
2022-12-19T05:41:57.843Z,23.90
2022-12-19T05:44:26.047Z,22.90
2022-12-19T05:46:53.526Z,24.27
2022-12-19T05:49:20.776Z,22.73
2022-12-19T05:51:48.247Z,22.80
2022-12-19T05:54:15.658Z,24.57
2022-12-19T05:56:42.855Z,22.90
2022-12-19T05:59:11.228Z,23.37
2022-12-19T06:01:39.255Z,24.23
2022-12-19T06:04:07.730Z,22.60
2022-12-19T06:06:34.966Z,25.53
2022-12-19T06:09:02.631Z,27.23
2022-12-19T06:11:29.957Z,25.90
2022-12-19T06:13:57.397Z,25.33
2022-12-19T06:16:24.659Z,24.40
2022-12-19T06:18:51.877Z,25.20
2022-12-19T06:21:20.674Z,28.30
2022-12-19T06:23:48.134Z,28.67
2022-12-19T06:26:19.541Z,24.30
2022-12-19T06:28:47.520Z,24.53
2022-12-19T06:31:15.213Z,26.60
2022-12-19T06:33:43.464Z,25.30
2022-12-19T06:36:21.251Z,25.30
2022-12-19T06:38:48.676Z,23.97
2022-12-19T06:41:34.592Z,26.40
2022-12-19T06:44:02.591Z,28.27
2022-12-19T06:46:30.101Z,29.67
2022-12-19T06:48:57.871Z,25.07
2022-12-19T06:51:25.188Z,23.80
2022-12-19T06:53:52.424Z,24.60
2022-12-19T06:56:20.105Z,28.80
2022-12-19T06:58:47.783Z,25.30
2022-12-19T07:01:41.412Z,26.70
2022-12-19T07:04:11.185Z,24.40
2022-12-19T07:06:38.503Z,25.10
2022-12-19T07:09:06.370Z,24.90
2022-12-19T07:11:33.546Z,25.17
2022-12-19T07:14:00.717Z,24.07
2022-12-19T07:16:28.123Z,25.17
2022-12-19T07:18:55.558Z,25.17
2022-12-19T07:21:22.744Z,24.67
2022-12-19T07:23:49.936Z,28.27
2022-12-19T07:26:18.145Z,29.90
2022-12-19T07:28:45.435Z,27.50
2022-12-19T07:31:12.680Z,25.10
2022-12-19T07:33:39.939Z,25.17
2022-12-19T07:36:07.166Z,22.40
2022-12-19T07:38:36.575Z,27.67
2022-12-19T07:41:03.887Z,28.13
2022-12-19T07:43:31.020Z,25.10
2022-12-19T07:45:58.703Z,26.10
2022-12-19T07:48:25.902Z,25.50
2022-12-19T07:50:53.358Z,27.90
2022-12-19T07:53:20.585Z,27.03
2022-12-19T07:55:50.800Z,25.97
2022-12-19T07:58:18.065Z,26.03
2022-12-19T08:00:45.313Z,25.57
2022-12-19T08:03:12.527Z,26.90
2022-12-19T08:05:39.792Z,26.33
2022-12-19T08:08:08.715Z,25.10
2022-12-19T08:10:35.891Z,26.10
2022-12-19T08:13:03.040Z,25.40
2022-12-19T08:15:31.537Z,25.17
2022-12-19T08:18:00.150Z,25.60
2022-12-19T08:20:27.512Z,23.63
2022-12-19T08:22:54.686Z,24.70
2022-12-19T08:25:21.880Z,23.90
2022-12-19T08:27:49.053Z,25.80
2022-12-19T08:30:16.749Z,29.43
2022-12-19T08:32:45.752Z,26.77
2022-12-19T08:35:12.981Z,24.97
2022-12-19T08:37:40.128Z,23.33
2022-12-19T08:40:07.687Z,26.53
2022-12-19T08:42:34.895Z,26.60
2022-12-19T08:45:02.256Z,26.93
2022-12-19T08:47:29.513Z,25.30
2022-12-19T08:49:57.073Z,25.23
2022-12-19T08:52:24.904Z,25.70
2022-12-19T08:54:52.061Z,26.20
2022-12-19T08:57:19.520Z,27.30
2022-12-19T08:59:47.771Z,24.73
2022-12-19T09:02:16.403Z,25.97
2022-12-19T09:05:58.580Z,25.13
2022-12-19T09:07:30.870Z,25.13
2022-12-19T09:09:58.862Z,26.20
2022-12-19T09:12:26.005Z,25.57
2022-12-19T09:14:53.811Z,25.53
2022-12-19T09:17:21.104Z,28.03
2022-12-19T09:19:48.562Z,26.60
2022-12-19T09:22:16.342Z,26.40
2022-12-19T09:24:43.523Z,27.70
2022-12-19T09:27:10.991Z,25.17
2022-12-19T09:29:38.280Z,26.67
2022-12-19T09:32:05.574Z,27.40
2022-12-19T09:34:38.512Z,28.77
2022-12-19T09:37:15.930Z,27.97
2022-12-19T09:39:45.438Z,35.17
2022-12-19T09:42:31.619Z,28.30
2022-12-19T09:45:19.742Z,25.83
2022-12-19T09:47:59.069Z,27.57
2022-12-19T09:50:45.495Z,26.50
2022-12-19T09:53:18.008Z,26.53
2022-12-19T09:55:45.947Z,24.70
2022-12-19T09:58:25.287Z,28.37
2022-12-19T10:01:00.136Z,23.80
2022-12-19T10:03:28.030Z,30.37
2022-12-19T10:07:11.195Z,30.50
2022-12-19T10:09:23.557Z,28.30
2022-12-19T10:12:44.838Z,25.90
2022-12-19T10:14:50.645Z,26.40
2022-12-19T10:17:25.292Z,26.23
2022-12-19T10:20:03.856Z,28.10
2022-12-19T10:22:41.383Z,29.53
2022-12-19T10:25:29.521Z,26.27
2022-12-19T10:27:59.496Z,26.00
2022-12-19T10:30:31.431Z,27.87
2022-12-19T10:33:20.684Z,26.40
2022-12-19T10:35:52.261Z,30.70
2022-12-19T10:38:27.529Z,27.90
2022-12-19T10:41:15.116Z,26.33
2022-12-19T10:43:54.799Z,28.30
2022-12-19T10:46:28.262Z,26.83
2022-12-19T10:48:56.775Z,28.00
2022-12-19T10:51:25.322Z,29.97
2022-12-19T10:53:57.032Z,30.53
2022-12-19T10:56:28.240Z,26.90
2022-12-19T10:59:01.246Z,25.33
2022-12-19T11:01:33.286Z,28.07
2022-12-19T11:04:19.641Z,25.40
2022-12-19T11:06:49.938Z,28.30
2022-12-19T11:09:27.923Z,25.77
2022-12-19T11:15:44.191Z,28.20
2022-12-19T11:19:08.922Z,26.30
2022-12-19T11:27:18.391Z,25.03
2022-12-19T11:29:44.792Z,25.97
2022-12-19T11:30:25.643Z,26.50
2022-12-19T11:30:42.810Z,26.37
2022-12-19T11:32:42.906Z,28.80
2022-12-19T11:35:20.659Z,27.97
2022-12-19T11:37:59.279Z,28.33
2022-12-19T11:40:49.339Z,25.43
2022-12-19T11:43:46.538Z,27.53
2022-12-19T11:46:21.738Z,26.33
2022-12-19T11:48:58.253Z,28.40
2022-12-19T11:51:45.590Z,27.73
2022-12-19T11:54:16.695Z,26.90
2022-12-19T11:56:43.878Z,28.63
2022-12-19T11:59:13.650Z,26.93
2022-12-19T12:01:55.642Z,29.37
2022-12-19T12:04:28.841Z,26.50
2022-12-19T12:06:57.619Z,25.83
2022-12-19T12:14:36.315Z,25.27
2022-12-19T12:20:33.148Z,26.33
2022-12-19T12:26:36.684Z,25.30
2022-12-19T12:31:10.433Z,25.90
2022-12-19T12:31:23.332Z,27.97
2022-12-19T12:31:48.508Z,26.40
2022-12-19T12:32:00.734Z,26.17
2022-12-19T12:32:06.759Z,26.63
2022-12-19T12:35:46.392Z,24.27
2022-12-19T12:39:11.908Z,24.77
2022-12-19T12:42:01.564Z,26.43
2022-12-19T12:44:32.764Z,27.67
2022-12-19T12:47:16.124Z,26.60
2022-12-19T12:49:56.400Z,29.43
2022-12-19T12:52:48.038Z,26.10
2022-12-19T12:55:39.943Z,26.23
2022-12-19T12:58:13.554Z,27.80
2022-12-19T13:00:57.190Z,25.27
2022-12-19T13:03:30.350Z,27.00
2022-12-19T13:06:08.294Z,26.60
2022-12-19T13:08:55.722Z,26.90
2022-12-19T13:11:45.035Z,25.87
2022-12-19T13:14:31.211Z,27.67
2022-12-19T13:16:58.499Z,26.20
2022-12-19T13:19:30.192Z,26.90
2022-12-19T13:22:10.085Z,26.70
2022-12-19T13:24:46.513Z,26.37
2022-12-19T13:27:19.918Z,25.73
2022-12-19T13:29:53.828Z,25.03
2022-12-19T13:32:21.905Z,27.37
2022-12-19T13:35:53.972Z,29.60
2022-12-19T13:40:02.199Z,26.83
2022-12-19T13:41:00.738Z,25.77
2022-12-19T13:43:45.918Z,27.57
2022-12-19T13:46:31.806Z,26.30
2022-12-19T13:49:19.341Z,27.33
2022-12-19T13:51:52.195Z,29.83
2022-12-19T13:54:22.801Z,30.07
2022-12-19T13:56:50.907Z,26.73
2022-12-19T13:59:18.423Z,27.50
2022-12-19T14:01:47.031Z,29.70
2022-12-19T14:04:23.862Z,28.40
2022-12-19T14:06:53.410Z,28.70
2022-12-19T14:11:27.195Z,31.30
2022-12-19T14:13:58.073Z,26.27
2022-12-19T14:15:27.853Z,29.30
2022-12-19T14:17:56.038Z,27.40
2022-12-19T14:22:01.744Z,28.30
2022-12-19T14:23:36.928Z,30.00
2022-12-19T14:28:21.198Z,27.27
2022-12-19T14:29:06.417Z,26.80
2022-12-19T14:31:35.702Z,29.20
2022-12-19T14:34:35.466Z,28.40
2022-12-19T14:36:56.121Z,28.70
2022-12-19T14:39:34.880Z,30.27
2022-12-19T14:43:59.928Z,29.93
2022-12-19T14:54:12.265Z,26.40
2022-12-19T14:54:21.863Z,27.97
2022-12-19T14:54:34.716Z,27.40
2022-12-19T14:55:08.275Z,28.57
2022-12-19T14:57:00.103Z,26.33
2022-12-19T14:59:29.705Z,27.63
2022-12-19T15:02:12.282Z,26.90
2022-12-19T15:04:48.887Z,25.80
2022-12-19T15:07:25.825Z,27.83
2022-12-19T15:10:58.827Z,30.53
2022-12-19T15:14:54.990Z,27.97
2022-12-19T15:16:01.883Z,27.83
2022-12-19T15:18:39.994Z,30.03
2022-12-19T15:21:16.116Z,27.60
2022-12-19T15:23:47.526Z,29.07
2022-12-19T15:26:16.661Z,28.70
2022-12-19T15:28:46.724Z,25.57
2022-12-19T15:31:24.266Z,27.77
2022-12-19T15:36:38.742Z,28.00
2022-12-19T15:39:05.900Z,26.90
2022-12-19T15:41:33.078Z,29.10
2022-12-19T15:44:04.285Z,28.47
2022-12-19T15:46:33.129Z,25.80
2022-12-19T15:49:01.029Z,26.87
2022-12-19T15:51:28.270Z,29.40
2022-12-19T15:54:08.909Z,31.90
2022-12-19T15:56:48.015Z,29.90
2022-12-19T15:59:38.770Z,29.30
2022-12-19T16:02:19.446Z,26.50
2022-12-19T16:04:48.205Z,30.50
2022-12-19T16:07:16.656Z,29.13
2022-12-19T16:09:43.817Z,30.13
2022-12-19T16:12:15.460Z,29.47
2022-12-19T16:14:42.706Z,31.47
2022-12-19T16:17:14.020Z,32.47
2022-12-19T16:19:41.438Z,30.30
2022-12-19T16:22:19.407Z,29.77
2022-12-19T16:24:46.761Z,31.73
2022-12-19T16:27:24.772Z,29.83
2022-12-19T16:29:52.646Z,30.10
2022-12-19T16:32:20.236Z,32.03
2022-12-19T16:34:47.394Z,31.83
2022-12-19T16:37:14.579Z,30.10
2022-12-19T16:39:41.882Z,31.77
2022-12-19T16:42:16.261Z,30.57
2022-12-19T16:44:44.201Z,32.03
2022-12-19T16:47:16.183Z,32.80
2022-12-19T16:49:44.470Z,30.27
2022-12-19T16:52:11.632Z,32.20
2022-12-19T16:54:38.788Z,36.10
2022-12-19T16:57:07.736Z,34.37
2022-12-19T16:59:37.844Z,31.17
2022-12-19T17:02:22.662Z,34.23
2022-12-19T17:04:53.918Z,34.07
2022-12-19T17:07:21.510Z,30.13
2022-12-19T17:09:49.093Z,36.27
2022-12-19T17:12:18.248Z,31.60
2022-12-19T17:14:45.585Z,30.77
2022-12-19T17:17:15.387Z,32.20
2022-12-19T17:19:44.937Z,33.20
2022-12-19T17:22:16.398Z,34.17
2022-12-19T17:24:44.677Z,34.37
2022-12-19T17:27:11.891Z,33.47
2022-12-19T17:29:39.427Z,39.33
2022-12-19T17:32:09.293Z,35.23
2022-12-19T17:34:36.769Z,31.07
2022-12-19T17:37:05.076Z,32.57
2022-12-19T17:39:34.106Z,33.70
2022-12-19T17:42:14.637Z,37.20
2022-12-19T17:44:41.801Z,34.10
2022-12-19T17:47:12.055Z,36.53
2022-12-19T17:49:39.307Z,37.20
2022-12-19T17:52:09.955Z,44.37
2022-12-19T17:54:37.464Z,35.10
2022-12-19T17:57:04.675Z,36.10
2022-12-19T17:59:31.922Z,38.10
2022-12-19T18:01:59.832Z,39.10
2022-12-19T18:04:28.744Z,33.73
2022-12-19T18:06:55.891Z,35.57
2022-12-19T18:09:24.609Z,35.20
2022-12-19T18:11:52.893Z,39.07
2022-12-19T18:14:20.425Z,37.90
2022-12-19T18:16:48.786Z,35.63
2022-12-19T18:19:20.494Z,37.40
2022-12-19T18:21:48.083Z,38.60
2022-12-19T18:24:18.625Z,42.23
2022-12-19T18:26:45.896Z,38.00
2022-12-19T18:29:13.569Z,36.07
2022-12-19T18:31:46.500Z,36.87
2022-12-19T18:34:22.513Z,34.53
2022-12-19T18:36:50.008Z,35.50
2022-12-19T18:39:27.608Z,37.60
2022-12-19T18:41:55.340Z,34.20
2022-12-19T18:44:23.238Z,35.23
2022-12-19T18:46:51.323Z,33.07
2022-12-19T18:49:19.635Z,34.30
2022-12-19T18:51:46.905Z,37.13
2022-12-19T18:54:21.577Z,37.60
2022-12-19T18:56:48.878Z,35.63
2022-12-19T18:59:16.076Z,36.40
2022-12-19T19:01:46.084Z,35.73
2022-12-19T19:04:17.403Z,34.33
2022-12-19T19:06:50.837Z,34.80
2022-12-19T19:09:19.270Z,37.77
2022-12-19T19:12:00.795Z,34.53
2022-12-19T19:14:28.055Z,36.10
2022-12-19T19:16:55.349Z,35.67
2022-12-19T19:19:22.646Z,35.23
2022-12-19T19:21:49.823Z,35.70
2022-12-19T19:24:19.485Z,36.93
2022-12-19T19:26:46.610Z,34.23
2022-12-19T19:29:18.830Z,35.07
2022-12-19T19:31:46.487Z,36.70
2022-12-19T19:34:21.473Z,37.37
2022-12-19T19:36:53.431Z,37.67
2022-12-19T19:39:22.660Z,35.47
2022-12-19T19:41:50.213Z,38.20
2022-12-19T19:44:17.531Z,35.50
2022-12-19T19:46:44.838Z,36.33
2022-12-19T19:49:12.280Z,35.23
2022-12-19T19:51:39.461Z,35.30
2022-12-19T19:54:06.715Z,38.10
2022-12-19T19:56:33.952Z,38.07
2022-12-19T19:59:02.227Z,37.70
2022-12-19T20:01:31.088Z,35.97
2022-12-19T20:03:58.403Z,35.77
2022-12-19T20:06:25.991Z,36.33
2022-12-19T20:08:53.167Z,35.40
2022-12-19T20:11:20.912Z,36.47
2022-12-19T20:13:48.132Z,32.60
2022-12-19T20:16:16.960Z,38.80
2022-12-19T20:18:47.704Z,36.03
2022-12-19T20:21:14.913Z,38.23
2022-12-19T20:23:42.907Z,35.63
2022-12-19T20:26:11.275Z,36.20
2022-12-19T20:28:43.972Z,32.87
2022-12-19T20:31:20.861Z,31.20
2022-12-19T20:33:48.831Z,34.40
2022-12-19T20:36:16.418Z,35.70
2022-12-19T20:38:43.604Z,34.13
2022-12-19T20:41:10.846Z,37.20
2022-12-19T20:43:38.529Z,37.27
2022-12-19T20:46:10.243Z,39.20
2022-12-19T20:48:37.906Z,36.83
2022-12-19T20:51:05.443Z,34.50
2022-12-19T20:53:33.533Z,38.97
2022-12-19T20:56:01.445Z,37.20
2022-12-19T20:58:30.012Z,36.00
2022-12-19T21:01:07.364Z,36.80
2022-12-19T21:03:35.457Z,36.33
2022-12-19T21:06:03.439Z,37.70
2022-12-19T21:08:30.825Z,38.17
2022-12-19T21:10:57.977Z,40.50
2022-12-19T21:13:25.122Z,39.33
2022-12-19T21:15:56.305Z,38.47
2022-12-19T21:18:24.058Z,36.23
2022-12-19T21:20:53.146Z,40.67
2022-12-19T21:23:20.352Z,37.43
2022-12-19T21:25:47.555Z,36.03
2022-12-19T21:28:15.195Z,35.53
2022-12-19T21:30:42.870Z,37.67
2022-12-19T21:33:10.102Z,34.47
2022-12-19T21:35:37.948Z,34.47
2022-12-19T21:38:05.189Z,36.00
2022-12-19T21:40:32.321Z,35.77
2022-12-19T21:42:59.477Z,37.37
2022-12-19T21:45:26.701Z,34.83
2022-12-19T21:47:53.820Z,35.80
2022-12-19T21:50:21.005Z,34.53
2022-12-19T21:52:52.750Z,36.70
2022-12-19T21:55:23.634Z,37.50
2022-12-19T21:57:50.999Z,35.87
2022-12-19T22:00:18.350Z,35.50
2022-12-19T22:03:12.098Z,34.40
2022-12-19T22:05:35.045Z,37.10
2022-12-19T22:08:02.225Z,35.77
2022-12-19T22:10:29.385Z,35.63
2022-12-19T22:12:56.500Z,34.90
2022-12-19T22:15:23.661Z,32.77
2022-12-19T22:17:50.807Z,32.17
2022-12-19T22:20:17.973Z,34.80
2022-12-19T22:22:45.090Z,33.37
2022-12-19T22:25:12.678Z,34.90
2022-12-19T22:27:39.837Z,34.27
2022-12-19T22:30:11.175Z,33.03
2022-12-19T22:32:38.545Z,34.57
2022-12-19T22:35:05.984Z,35.40
2022-12-19T22:37:33.215Z,33.90
2022-12-19T22:40:00.653Z,34.13
2022-12-19T22:42:28.371Z,34.17
2022-12-19T22:44:56.545Z,36.23
2022-12-19T22:47:23.725Z,33.23
2022-12-19T22:49:52.088Z,30.87
2022-12-19T22:52:19.664Z,31.40
2022-12-19T22:54:46.841Z,34.97
2022-12-19T22:57:13.997Z,35.83
2022-12-19T22:59:42.009Z,35.30
2022-12-19T23:02:10.307Z,35.50
2022-12-19T23:04:37.695Z,33.33
2022-12-19T23:07:05.750Z,32.20
2022-12-19T23:09:35.162Z,34.03
2022-12-19T23:12:02.517Z,31.90
2022-12-19T23:14:30.290Z,35.37
2022-12-19T23:16:58.050Z,33.60
2022-12-19T23:19:26.052Z,33.63
2022-12-19T23:21:53.644Z,32.77
2022-12-19T23:24:20.792Z,33.37
2022-12-19T23:26:49.585Z,30.07
2022-12-19T23:29:17.036Z,35.80
2022-12-19T23:31:46.020Z,33.13
2022-12-19T23:34:13.988Z,34.13
2022-12-19T23:39:29.064Z,36.37
2022-12-19T23:41:56.326Z,32.40
2022-12-19T23:44:23.970Z,31.70
2022-12-19T23:46:51.149Z,31.03
2022-12-19T23:49:18.485Z,33.70
2022-12-19T23:51:45.839Z,31.20
2022-12-19T23:54:13.857Z,33.30
2022-12-19T23:56:41.416Z,30.90
2022-12-19T23:59:08.642Z,31.13
